Time;durP1;ratioP1;P1;durP2;ratioP2;P2;SDS_P1;SDS_P2;PMS_P1;PMS_P2;Temp;Humidity;BMP_temperature;BMP_pressure;BME280_temperature;BME280_humidity;BME280_pressure;Samples;Min_cycle;Max_cycle;Signal;HPM_P1;HPM_P2
2022/07/05 00:01:01;;;;;;;5.23;3.83;;;18.50;99.90;;;;;;5033940;28;20176;-82
2022/07/05 00:03:28;;;;;;;4.60;3.43;;;18.50;99.90;;;;;;5034049;28;20176;-82
2022/07/05 00:05:54;;;;;;;6.47;4.10;;;18.50;99.90;;;;;;5015700;28;20458;-83
2022/07/05 00:08:19;;;;;;;8.07;4.10;;;18.50;99.90;;;;;;5033551;28;21001;-82
2022/07/05 00:10:45;;;;;;;4.50;3.40;;;18.50;99.90;;;;;;5033784;28;20494;-82
2022/07/05 00:13:11;;;;;;;5.33;3.80;;;18.50;99.90;;;;;;5034029;28;20631;-82
2022/07/05 00:15:37;;;;;;;5.80;4.13;;;18.50;99.90;;;;;;5032869;28;20188;-83
2022/07/05 00:18:03;;;;;;;5.63;4.70;;;18.50;99.90;;;;;;5015855;28;20443;-83
2022/07/05 00:20:29;;;;;;;5.30;4.00;;;18.40;99.90;;;;;;5033433;28;20651;-83
2022/07/05 00:22:54;;;;;;;7.20;4.30;;;18.40;99.90;;;;;;5033836;28;20180;-83
2022/07/05 00:25:20;;;;;;;6.33;4.27;;;18.40;99.90;;;;;;5018976;28;20207;-83
2022/07/05 00:27:46;;;;;;;5.20;3.80;;;18.30;99.90;;;;;;5020600;28;20200;-83
2022/07/05 00:30:12;;;;;;;9.37;4.10;;;18.40;99.90;;;;;;5037661;28;20227;-83
2022/07/05 00:32:38;;;;;;;6.50;4.07;;;18.30;99.90;;;;;;5039504;28;20176;-83
2022/07/05 00:35:05;;;;;;;5.73;3.73;;;18.20;99.90;;;;;;5039092;28;20411;-84
2022/07/05 00:37:31;;;;;;;5.20;3.83;;;18.20;99.90;;;;;;5037692;28;20216;-83
2022/07/05 00:39:56;;;;;;;5.30;3.67;;;18.10;99.90;;;;;;5038362;28;20487;-83
2022/07/05 00:42:22;;;;;;;4.67;3.57;;;18.10;99.90;;;;;;5021125;28;20185;-83
2022/07/05 00:44:47;;;;;;;6.43;3.90;;;18.10;99.90;;;;;;5022439;28;20192;-86
2022/07/05 00:47:13;;;;;;;5.00;3.57;;;18.10;99.90;;;;;;5033389;28;20682;-85
2022/07/05 00:49:41;;;;;;;6.43;4.20;;;18.10;99.90;;;;;;5032978;28;20185;-85
2022/07/05 00:52:07;;;;;;;6.57;4.43;;;18.00;99.90;;;;;;5015092;28;20184;-85
2022/07/05 00:54:35;;;;;;;7.27;4.10;;;17.90;99.90;;;;;;5033206;28;20415;-85
2022/07/05 00:57:01;;;;;;;6.70;3.60;;;17.90;99.90;;;;;;5034579;28;20480;-85
2022/07/05 00:59:28;;;;;;;5.43;3.60;;;17.80;99.90;;;;;;5014751;28;20423;-85
2022/07/05 01:01:53;;;;;;;5.27;3.40;;;17.70;99.90;;;;;;5032791;28;20191;-85
2022/07/05 01:04:19;;;;;;;5.17;4.03;;;17.70;99.90;;;;;;5032840;28;20494;-85
2022/07/05 01:06:47;;;;;;;4.83;3.30;;;17.70;99.90;;;;;;5016665;28;20204;-86
2022/07/05 01:09:15;;;;;;;4.90;3.70;;;17.70;99.90;;;;;;5017789;28;20588;-86
2022/07/05 01:11:42;;;;;;;5.20;4.37;;;17.70;99.90;;;;;;5037246;28;20419;-85
2022/07/05 01:14:10;;;;;;;5.23;4.07;;;17.80;99.90;;;;;;5020211;28;20418;-84
2022/07/05 01:16:38;;;;;;;4.77;3.70;;;17.70;99.90;;;;;;5014522;28;20514;-84
2022/07/05 01:19:08;;;;;;;4.23;3.40;;;17.80;99.90;;;;;;5014883;28;20451;-85
2022/07/05 01:21:40;;;;;;;4.57;3.20;;;17.70;99.90;;;;;;5032800;28;20454;-86
2022/07/05 01:24:09;;;;;;;5.47;4.13;;;17.70;99.90;;;;;;5031908;28;20914;-86
2022/07/05 01:26:36;;;;;;;6.90;4.10;;;17.70;99.90;;;;;;5037085;28;20459;-86
2022/07/05 01:29:01;;;;;;;5.87;3.53;;;17.70;99.90;;;;;;5036844;28;20461;-86
2022/07/05 01:31:27;;;;;;;4.53;3.30;;;17.70;99.90;;;;;;5036041;28;20411;-84
2022/07/05 01:33:53;;;;;;;5.80;4.27;;;17.60;99.90;;;;;;5032370;28;20172;-86
2022/07/05 01:36:18;;;;;;;4.80;3.57;;;17.60;99.90;;;;;;5033959;28;20184;-86
2022/07/05 01:38:45;;;;;;;4.30;3.30;;;17.60;99.90;;;;;;5019005;28;20216;-86
2022/07/05 01:41:11;;;;;;;6.00;3.80;;;17.40;99.90;;;;;;5034386;28;20187;-84
2022/07/05 01:43:36;;;;;;;4.80;3.20;;;17.40;99.90;;;;;;5014649;28;20954;-85
2022/07/05 01:46:05;;;;;;;4.87;3.77;;;17.40;99.90;;;;;;5032375;28;20235;-85
2022/07/05 01:48:33;;;;;;;5.37;4.13;;;17.20;99.90;;;;;;5035277;28;20196;-85
2022/07/05 01:51:24;;;;;;;4.93;3.47;;;17.20;99.90;;;;;;5034581;28;20418;-85
2022/07/05 01:53:52;;;;;;;5.07;3.23;;;17.20;99.90;;;;;;5032378;28;20771;-85
2022/07/05 01:56:18;;;;;;;7.60;4.23;;;17.20;99.90;;;;;;5033610;28;20430;-87
2022/07/05 01:58:45;;;;;;;4.60;4.00;;;17.20;99.90;;;;;;5017604;28;20443;-85
2022/07/05 02:01:12;;;;;;;5.57;3.33;;;17.20;99.90;;;;;;5035165;28;20482;-85
2022/07/05 02:03:39;;;;;;;7.73;4.10;;;17.20;99.90;;;;;;5017488;28;20426;-85
2022/07/05 02:06:06;;;;;;;6.50;3.30;;;17.20;99.90;;;;;;5016740;28;20839;-86
2022/07/05 02:08:31;;;;;;;5.17;3.47;;;17.20;99.90;;;;;;5017942;28;20530;-85
2022/07/05 02:10:57;;;;;;;4.83;3.30;;;17.20;99.90;;;;;;5037047;28;20439;-85
2022/07/05 02:13:23;;;;;;;4.03;3.00;;;17.20;99.90;;;;;;5036474;28;20635;-85
2022/07/05 02:15:49;;;;;;;6.53;3.70;;;17.20;99.90;;;;;;5036024;28;20411;-86
2022/07/05 02:18:14;;;;;;;5.13;3.70;;;17.10;99.90;;;;;;5016883;28;20694;-85
2022/07/05 02:20:40;;;;;;;6.77;3.37;;;17.20;99.90;;;;;;5017761;28;20208;-85
2022/07/05 02:23:07;;;;;;;6.00;3.70;;;17.20;99.90;;;;;;5036365;28;20180;-85
2022/07/05 02:25:33;;;;;;;4.17;2.90;;;17.20;99.90;;;;;;5017852;28;20459;-85
2022/07/05 02:27:59;;;;;;;5.40;3.20;;;17.30;99.90;;;;;;5035339;28;20430;-82
2022/07/05 02:30:24;;;;;;;6.50;3.43;;;17.40;99.90;;;;;;5033590;28;20934;-83
2022/07/05 02:32:50;;;;;;;6.20;3.47;;;17.30;99.90;;;;;;5017219;28;20450;-82
2022/07/05 02:35:15;;;;;;;4.77;3.47;;;17.30;99.90;;;;;;5036114;28;20179;-82
2022/07/05 02:37:41;;;;;;;7.33;3.87;;;17.40;99.90;;;;;;5033934;28;20266;-83
2022/07/05 02:40:11;;;;;;;6.10;4.10;;;17.40;99.90;;;;;;5019778;28;20231;-83
2022/07/05 02:42:38;;;;;;;5.37;3.50;;;17.40;99.90;;;;;;5037187;28;20176;-83
2022/07/05 02:45:04;;;;;;;6.50;3.40;;;17.40;99.90;;;;;;5037953;28;20459;-83
2022/07/05 02:47:31;;;;;;;4.70;3.50;;;17.40;99.90;;;;;;5037712;28;20893;-83
2022/07/05 02:49:58;;;;;;;4.47;3.70;;;17.30;99.90;;;;;;5037821;28;20785;-83
2022/07/05 02:52:24;;;;;;;4.30;3.50;;;17.40;99.90;;;;;;5038029;28;20464;-83
2022/07/05 02:54:49;;;;;;;4.87;3.00;;;17.40;99.90;;;;;;5036075;28;20477;-83
2022/07/05 02:57:15;;;;;;;5.30;3.80;;;17.50;99.90;;;;;;5037222;28;20382;-83
2022/07/05 02:59:40;;;;;;;4.80;3.43;;;17.40;99.90;;;;;;5019352;28;20176;-84
2022/07/05 03:02:06;;;;;;;6.93;4.00;;;17.40;99.90;;;;;;5019233;28;20180;-83
2022/07/05 03:04:31;;;;;;;7.00;3.80;;;17.40;99.90;;;;;;5019661;28;20184;-84
2022/07/05 03:06:57;;;;;;;7.07;5.07;;;17.20;99.90;;;;;;5035845;28;20617;-83
2022/07/05 03:09:24;;;;;;;7.97;3.93;;;17.20;99.90;;;;;;5037753;28;20579;-83
2022/07/05 03:11:50;;;;;;;8.30;4.10;;;17.20;99.90;;;;;;5037120;28;20465;-83
2022/07/05 03:14:15;;;;;;;7.00;4.20;;;17.30;99.90;;;;;;5036966;28;20212;-83
2022/07/05 03:16:42;;;;;;;5.23;4.13;;;17.20;99.90;;;;;;5036721;28;20310;-82
2022/07/05 03:19:08;;;;;;;5.30;3.60;;;17.20;99.90;;;;;;5018828;28;20235;-83
2022/07/05 03:21:33;;;;;;;4.87;3.53;;;17.10;99.90;;;;;;5018934;28;20437;-86
2022/07/05 03:23:59;;;;;;;7.23;4.77;;;17.20;99.90;;;;;;5036856;28;20910;-84
2022/07/05 03:26:25;;;;;;;5.57;3.80;;;17.10;99.90;;;;;;5037234;28;20204;-85
2022/07/05 03:28:51;;;;;;;5.97;3.90;;;17.00;99.90;;;;;;5017685;28;20294;-85
2022/07/05 03:31:16;;;;;;;5.50;3.67;;;16.90;99.90;;;;;;5036054;28;20173;-83
2022/07/05 03:33:42;;;;;;;6.87;3.97;;;16.90;99.90;;;;;;5016586;28;20435;-85
2022/07/05 03:36:07;;;;;;;5.03;4.10;;;16.90;99.90;;;;;;5016502;28;20191;-85
2022/07/05 03:38:33;;;;;;;7.50;4.80;;;17.00;99.90;;;;;;5074923;22;20944;-84
2022/07/05 03:40:59;;;;;;;5.83;4.40;;;17.00;99.90;;;;;;5034112;28;20184;-85
2022/07/05 03:43:25;;;;;;;6.00;4.03;;;17.10;99.90;;;;;;5013247;28;20180;-84
2022/07/05 03:45:50;;;;;;;5.23;4.00;;;17.00;99.90;;;;;;5020284;28;20459;-84
2022/07/05 03:48:16;;;;;;;15.53;5.83;;;16.90;99.90;;;;;;5049599;28;20260;-84
2022/07/05 03:50:41;;;;;;;6.43;4.53;;;17.00;99.90;;;;;;5032837;28;20176;-85
2022/07/05 03:53:07;;;;;;;5.03;4.07;;;17.10;99.90;;;;;;5034134;28;20176;-84
2022/07/05 03:55:33;;;;;;;5.37;4.03;;;17.20;99.90;;;;;;5034043;28;20172;-84
2022/07/05 03:57:58;;;;;;;5.63;4.13;;;17.20;99.90;;;;;;5032564;28;20192;-84
2022/07/05 04:00:24;;;;;;;5.53;3.80;;;17.30;99.90;;;;;;5034040;28;20181;-85
2022/07/05 04:02:49;;;;;;;9.30;4.90;;;17.40;99.90;;;;;;5032769;28;20234;-84
2022/07/05 04:05:15;;;;;;;5.73;4.27;;;17.40;99.90;;;;;;5032521;28;20205;-83
2022/07/05 04:07:51;;;;;;;5.80;3.67;;;17.50;99.90;;;;;;5032315;28;20263;-84
2022/07/05 04:10:17;;;;;;;6.37;4.03;;;17.50;99.90;;;;;;5033802;28;20200;-84
2022/07/05 04:12:44;;;;;;;5.87;4.30;;;17.40;99.90;;;;;;5032606;28;20952;-84
2022/07/05 04:15:10;;;;;;;5.73;3.67;;;17.30;99.90;;;;;;5032451;28;20451;-84
2022/07/05 04:17:45;;;;;;;4.13;3.20;;;17.40;99.90;;;;;;5033412;28;20929;-85
2022/07/05 04:20:10;;;;;;;5.60;4.23;;;17.50;99.90;;;;;;5032463;28;20477;-85
2022/07/05 04:22:36;;;;;;;5.93;3.93;;;17.50;99.90;;;;;;5032501;28;20450;-84
2022/07/05 04:25:16;;;;;;;5.30;3.83;;;17.50;99.90;;;;;;5021142;28;20268;-85
2022/07/05 04:27:43;;;;;;;5.50;3.83;;;17.40;99.90;;;;;;5012190;28;20271;-84
2022/07/05 04:30:10;;;;;;;7.23;5.77;;;17.50;99.90;;;;;;5012297;28;20444;-84
2022/07/05 04:32:35;;;;;;;7.13;4.30;;;17.50;99.90;;;;;;5012355;28;20435;-85
2022/07/05 04:35:01;;;;;;;6.20;4.40;;;17.50;99.90;;;;;;5012306;28;20922;-84
2022/07/05 04:37:27;;;;;;;4.33;3.57;;;17.50;99.90;;;;;;5012039;28;20178;-84
2022/07/05 04:39:53;;;;;;;5.60;4.10;;;17.50;99.90;;;;;;5025910;28;20208;-84
2022/07/05 04:42:18;;;;;;;8.43;4.60;;;17.50;99.90;;;;;;5032089;28;20454;-85
2022/07/05 04:44:52;;;;;;;4.67;3.80;;;17.50;99.90;;;;;;5033122;28;20183;-84
2022/07/05 04:47:18;;;;;;;5.87;4.20;;;17.50;99.90;;;;;;5032862;28;20623;-84
2022/07/05 04:49:44;;;;;;;5.10;3.73;;;17.60;99.90;;;;;;5031706;28;20521;-84
2022/07/05 04:52:09;;;;;;;6.40;4.70;;;17.70;99.90;;;;;;5033107;28;20544;-84
2022/07/05 04:54:36;;;;;;;4.73;3.70;;;17.70;99.90;;;;;;5031653;28;20173;-84
2022/07/05 04:57:02;;;;;;;5.77;4.07;;;17.70;99.90;;;;;;5031337;28;20367;-84
2022/07/05 04:59:27;;;;;;;6.57;3.87;;;17.80;99.90;;;;;;5031653;28;20493;-84
2022/07/05 05:01:53;;;;;;;6.03;3.77;;;17.90;99.90;;;;;;5031113;28;20230;-84
2022/07/05 05:04:19;;;;;;;6.13;3.93;;;17.90;99.90;;;;;;5032857;28;20172;-84
2022/07/05 05:06:44;;;;;;;6.03;3.80;;;18.10;99.90;;;;;;5031023;28;20683;-85
2022/07/05 05:09:10;;;;;;;6.80;3.53;;;18.20;99.90;;;;;;5031452;28;20224;-84
2022/07/05 05:11:35;;;;;;;5.37;3.53;;;18.30;99.90;;;;;;5031454;28;20579;-84
2022/07/05 05:14:01;;;;;;;4.97;3.60;;;18.30;99.90;;;;;;5031582;28;20180;-84
2022/07/05 05:16:26;;;;;;;7.17;3.80;;;18.50;99.90;;;;;;5030904;28;20203;-84
2022/07/05 05:18:52;;;;;;;4.50;3.47;;;18.60;99.90;;;;;;5031223;28;20204;-84
2022/07/05 05:21:18;;;;;;;8.13;4.10;;;18.80;99.90;;;;;;5031309;28;20392;-84
2022/07/05 05:23:43;;;;;;;6.63;3.33;;;19.00;99.90;;;;;;5031113;28;20663;-83
2022/07/05 05:26:09;;;;;;;5.00;3.30;;;19.10;99.90;;;;;;5030808;28;20239;-84
2022/07/05 05:28:34;;;;;;;4.47;3.23;;;19.20;99.90;;;;;;5030938;28;20224;-84
2022/07/05 05:31:00;;;;;;;4.23;3.10;;;19.30;99.90;;;;;;5031122;28;20184;-84
2022/07/05 05:33:26;;;;;;;5.67;3.43;;;19.30;99.90;;;;;;5031086;28;20180;-84
2022/07/05 05:35:52;;;;;;;4.80;3.20;;;19.20;99.90;;;;;;5032147;28;20181;-84
2022/07/05 05:38:17;;;;;;;6.40;3.70;;;19.30;99.90;;;;;;5030562;28;20411;-84
2022/07/05 05:40:44;;;;;;;3.90;3.23;;;19.40;99.90;;;;;;5023430;28;20185;-84
2022/07/05 05:43:10;;;;;;;5.57;3.40;;;19.40;99.90;;;;;;4994918;28;20185;-84
2022/07/05 05:45:36;;;;;;;3.80;3.30;;;19.40;99.90;;;;;;5010700;28;20510;-84
2022/07/05 05:48:02;;;;;;;4.20;3.07;;;19.50;99.90;;;;;;5010936;28;20465;-84
2022/07/05 05:50:30;;;;;;;4.93;2.87;;;19.70;99.90;;;;;;5012452;28;20659;-84
2022/07/05 05:52:56;;;;;;;5.03;3.13;;;19.80;99.90;;;;;;5011067;28;20424;-84
2022/07/05 05:55:24;;;;;;;4.00;3.00;;;20.00;99.90;;;;;;5011160;28;20424;-84
2022/07/05 05:57:49;;;;;;;4.97;4.00;;;20.00;99.90;;;;;;5010673;28;20874;-84
2022/07/05 06:00:16;;;;;;;5.70;4.80;;;19.90;99.90;;;;;;5011100;28;20467;-84
2022/07/05 06:02:42;;;;;;;6.17;3.47;;;19.90;99.90;;;;;;5012246;28;20205;-85
2022/07/05 06:05:09;;;;;;;5.30;3.57;;;19.90;99.90;;;;;;5010996;28;21208;-84
2022/07/05 06:07:49;;;;;;;6.60;3.60;;;19.90;99.90;;;;;;5010529;28;20451;-84
2022/07/05 06:10:24;;;;;;;7.17;3.97;;;20.00;99.90;;;;;;5010981;28;20990;-84
2022/07/05 06:12:51;;;;;;;3.83;3.00;;;20.10;99.90;;;;;;5010850;28;20455;-84
2022/07/05 06:15:17;;;;;;;4.13;3.07;;;20.10;99.90;;;;;;5016041;28;20415;-84
2022/07/05 06:17:43;;;;;;;4.57;2.93;;;20.10;99.90;;;;;;5015705;28;20440;-84
2022/07/05 06:20:11;;;;;;;6.77;3.13;;;20.20;99.90;;;;;;5014532;28;20595;-84
2022/07/05 06:22:37;;;;;;;4.50;3.13;;;20.30;99.90;;;;;;4998540;28;20264;-84
2022/07/05 06:25:03;;;;;;;6.30;3.10;;;20.30;99.90;;;;;;5014570;28;20460;-84
2022/07/05 06:27:29;;;;;;;4.77;3.00;;;20.30;99.90;;;;;;5014195;28;20431;-85
2022/07/05 06:29:55;;;;;;;4.40;2.97;;;20.40;99.90;;;;;;5014416;28;20962;-84
2022/07/05 06:32:21;;;;;;;4.60;3.03;;;20.50;99.90;;;;;;5014738;28;20605;-83
2022/07/05 06:34:47;;;;;;;4.80;3.40;;;20.50;99.90;;;;;;5014607;28;20174;-84
2022/07/05 06:37:12;;;;;;;4.97;2.90;;;20.50;99.90;;;;;;5015432;28;20173;-84
2022/07/05 06:39:38;;;;;;;5.10;3.00;;;20.60;99.90;;;;;;5014239;28;20827;-84
2022/07/05 06:42:04;;;;;;;4.13;2.80;;;20.70;99.90;;;;;;5017642;28;20177;-84
2022/07/05 06:44:29;;;;;;;5.43;2.73;;;20.80;99.90;;;;;;5035288;28;20203;-83
2022/07/05 06:46:55;;;;;;;4.60;2.90;;;20.80;99.90;;;;;;5034988;28;20504;-83
2022/07/05 06:49:21;;;;;;;4.50;2.70;;;20.80;99.90;;;;;;5017440;28;20196;-84
2022/07/05 06:51:46;;;;;;;5.20;3.37;;;20.80;99.90;;;;;;5024190;28;20698;-83
2022/07/05 06:54:12;;;;;;;4.73;3.63;;;20.90;99.90;;;;;;5035210;28;20177;-84
2022/07/05 06:56:38;;;;;;;4.23;3.00;;;21.00;99.90;;;;;;5017041;28;20275;-84
2022/07/05 06:59:03;;;;;;;5.90;2.57;;;21.10;99.90;;;;;;5035034;28;20223;-84
2022/07/05 07:01:29;;;;;;;5.57;2.97;;;21.10;99.90;;;;;;5035069;28;20208;-84
2022/07/05 07:03:54;;;;;;;6.13;3.20;;;21.20;99.90;;;;;;5017353;28;20184;-84
2022/07/05 07:06:20;;;;;;;3.83;2.30;;;21.30;99.90;;;;;;5016804;28;20206;-84
2022/07/05 07:11:30;;;;;;;3.37;2.03;;;21.50;99.90;;;;;;5035146;28;20223;-84
2022/07/05 07:13:56;;;;;;;6.57;2.90;;;21.50;99.90;;;;;;5017139;28;20845;-84
2022/07/05 07:16:22;;;;;;;3.90;2.30;;;21.60;99.90;;;;;;5016694;28;20180;-84
2022/07/05 07:18:47;;;;;;;4.40;3.03;;;21.70;99.90;;;;;;5017002;28;20435;-84
2022/07/05 07:21:13;;;;;;;5.33;2.37;;;21.70;99.90;;;;;;5016964;28;20188;-84
2022/07/05 07:23:38;;;;;;;3.90;2.43;;;21.80;99.90;;;;;;5017337;28;20215;-84
2022/07/05 07:26:04;;;;;;;3.80;2.50;;;21.90;99.90;;;;;;5016296;28;20211;-85
2022/07/05 07:28:30;;;;;;;4.40;2.90;;;22.00;99.90;;;;;;5034378;28;20203;-85
2022/07/05 07:30:56;;;;;;;7.27;2.67;;;22.00;99.90;;;;;;5016899;28;20230;-84
2022/07/05 07:33:21;;;;;;;5.37;3.07;;;22.10;99.90;;;;;;5034579;28;20177;-86
2022/07/05 07:35:47;;;;;;;5.60;3.47;;;22.10;99.90;;;;;;5016550;28;20569;-85
2022/07/05 07:38:12;;;;;;;3.50;2.23;;;22.20;99.90;;;;;;5016259;28;20660;-84
2022/07/05 07:40:38;;;;;;;3.70;2.27;;;22.30;99.90;;;;;;5016708;28;20601;-88
2022/07/05 07:43:03;;;;;;;5.77;2.87;;;22.40;99.90;;;;;;5016400;28;20267;-87
2022/07/05 07:45:31;;;;;;;4.40;2.93;;;22.50;99.90;;;;;;5016999;28;20694;-86
2022/07/05 07:47:57;;;;;;;4.70;3.03;;;22.60;99.90;;;;;;5016361;28;20267;-87
2022/07/05 07:50:22;;;;;;;5.30;2.80;;;22.60;99.90;;;;;;5016718;28;20475;-87
2022/07/05 07:52:48;;;;;;;4.60;3.10;;;22.70;99.90;;;;;;5016410;28;20469;-87
2022/07/05 07:55:15;;;;;;;5.80;2.70;;;22.80;99.90;;;;;;5016440;28;20188;-86
2022/07/05 07:57:41;;;;;;;3.30;2.60;;;22.80;99.90;;;;;;5016222;28;20799;-86
2022/07/05 08:00:07;;;;;;;5.93;3.10;;;22.90;99.90;;;;;;5024037;28;20439;-87
2022/07/05 08:02:32;;;;;;;4.43;2.60;;;22.90;99.90;;;;;;5015922;28;20188;-87
2022/07/05 08:04:58;;;;;;;5.30;3.10;;;23.00;99.90;;;;;;5015914;28;20422;-86
2022/07/05 08:07:24;;;;;;;6.20;2.30;;;23.20;99.90;;;;;;5033723;28;20180;-87
2022/07/05 08:09:50;;;;;;;4.47;2.20;;;23.30;99.90;;;;;;5015989;28;20251;-87
2022/07/05 08:12:16;;;;;;;4.47;2.10;;;23.40;99.90;;;;;;5033816;28;20227;-87
2022/07/05 08:14:42;;;;;;;4.90;2.23;;;23.70;99.90;;;;;;5015921;28;20575;-86
2022/07/05 08:17:08;;;;;;;5.47;2.40;;;24.60;99.90;;;;;;5015774;28;20431;-88
2022/07/05 08:22:19;;;;;;;4.77;2.40;;;26.80;99.90;;;;;;5033886;28;20468;-87
2022/07/05 08:24:45;;;;;;;3.00;2.30;;;27.90;99.60;;;;;;5033892;28;20439;-87
2022/07/05 08:27:11;;;;;;;4.20;1.97;;;28.90;95.60;;;;;;5015170;28;20463;-87
2022/07/05 08:29:37;;;;;;;4.07;2.30;;;29.90;92.40;;;;;;5033533;28;20438;-88
2022/07/05 08:32:03;;;;;;;3.70;2.37;;;30.50;81.70;;;;;;5015654;28;20566;-87
2022/07/05 08:34:29;;;;;;;3.70;2.30;;;31.10;73.80;;;;;;5015757;28;20430;-88
2022/07/05 08:36:54;;;;;;;4.67;2.90;;;31.60;71.40;;;;;;5014560;28;20411;-88
2022/07/05 08:39:20;;;;;;;5.37;1.90;;;32.30;65.80;;;;;;5015237;28;20223;-88
2022/07/05 08:41:51;;;;;;;6.10;2.03;;;32.60;62.30;;;;;;5015432;28;20184;-88
2022/07/05 08:44:22;;;;;;;2.97;1.90;;;33.30;60.40;;;;;;5015444;28;20180;-88
2022/07/05 08:46:50;;;;;;;2.87;1.47;;;33.50;56.60;;;;;;5014893;28;20466;-88
2022/07/05 08:49:22;;;;;;;3.30;1.87;;;32.10;56.30;;;;;;5015141;28;20435;-88
2022/07/05 08:51:49;;;;;;;3.90;1.93;;;31.30;57.50;;;;;;5033373;28;20414;-87
2022/07/05 08:54:16;;;;;;;3.30;1.70;;;32.20;55.00;;;;;;5015428;28;21004;-87
2022/07/05 08:56:43;;;;;;;3.30;2.07;;;32.80;53.20;;;;;;5032478;28;20419;-88
2022/07/05 08:59:08;;;;;;;3.57;2.17;;;33.40;54.80;;;;;;5015136;28;20443;-88
2022/07/05 09:01:35;;;;;;;3.80;2.00;;;34.30;52.50;;;;;;5032754;28;20862;-87
2022/07/05 09:04:04;;;;;;;6.57;2.30;;;35.00;51.00;;;;;;5014864;28;20180;-87
2022/07/05 09:06:32;;;;;;;4.70;1.70;;;33.80;49.50;;;;;;5014429;28;20582;-89
2022/07/05 09:08:59;;;;;;;4.43;1.63;;;33.10;52.20;;;;;;5014710;28;20878;-88
2022/07/05 09:11:33;;;;;;;2.93;1.97;;;34.20;50.60;;;;;;5014846;28;20411;-88
2022/07/05 09:13:59;;;;;;;3.20;2.03;;;34.00;49.30;;;;;;5014893;28;20497;-88
2022/07/05 09:16:25;;;;;;;2.80;1.87;;;32.80;49.40;;;;;;5032150;28;21062;-88
2022/07/05 09:18:53;;;;;;;2.70;1.83;;;31.50;49.30;;;;;;5032610;28;20266;-88
2022/07/05 09:21:26;;;;;;;5.33;2.43;;;30.70;51.20;;;;;;5014767;28;20181;-88
2022/07/05 09:24:06;;;;;;;3.63;2.20;;;29.90;51.20;;;;;;5014822;28;20469;-88
2022/07/05 09:26:47;;;;;;;2.83;2.27;;;29.00;53.70;;;;;;5032051;28;20520;-88
2022/07/05 09:29:20;;;;;;;4.43;2.43;;;28.80;57.50;;;;;;5032204;28;20852;-88
2022/07/05 09:31:52;;;;;;;3.87;2.40;;;29.20;55.50;;;;;;5014615;28;20423;-87
2022/07/05 09:34:19;;;;;;;4.87;2.60;;;28.60;54.00;;;;;;5014532;28;20422;-87
2022/07/05 09:36:55;;;;;;;5.03;2.30;;;29.30;55.80;;;;;;5014209;28;20466;-88
2022/07/05 09:39:36;;;;;;;2.87;2.17;;;31.60;54.60;;;;;;5031977;28;20477;-88
2022/07/05 09:42:23;;;;;;;4.80;2.13;;;33.90;52.90;;;;;;5075086;22;20534;-78
2022/07/05 09:44:54;;;;;;;3.30;1.77;;;35.50;47.30;;;;;;5038822;28;20475;-79
2022/07/05 09:47:21;;;;;;;4.13;1.80;;;36.40;43.00;;;;;;5038297;28;20571;-79
2022/07/05 09:49:52;;;;;;;2.87;2.00;;;37.10;44.30;;;;;;5038162;28;20990;-79
2022/07/05 09:52:31;;;;;;;3.63;2.10;;;37.80;40.10;;;;;;5039280;28;20787;-78
2022/07/05 09:55:03;;;;;;;3.43;2.20;;;38.30;41.20;;;;;;5039483;28;20483;-78
2022/07/05 09:57:30;;;;;;;2.97;2.17;;;38.50;38.40;;;;;;5039536;28;20515;-79
2022/07/05 10:00:03;;;;;;;4.30;1.63;;;39.20;38.10;;;;;;5039418;28;20429;-78
2022/07/05 10:02:41;;;;;;;3.13;1.80;;;38.60;34.40;;;;;;5039583;28;20491;-78
2022/07/05 10:05:14;;;;;;;2.70;1.70;;;37.90;37.00;;;;;;5038606;28;20418;-79
2022/07/05 10:07:41;;;;;;;5.03;1.87;;;38.30;36.30;;;;;;5039217;28;20528;-78
2022/07/05 10:10:17;;;;;;;2.80;1.43;;;38.20;35.70;;;;;;5038877;28;20422;-78
2022/07/05 10:12:44;;;;;;;3.60;1.50;;;37.60;35.20;;;;;;5039567;28;20777;-78
2022/07/05 10:15:12;;;;;;;3.43;2.40;;;35.70;36.20;;;;;;5039289;28;20426;-79
2022/07/05 10:17:49;;;;;;;6.67;1.93;;;34.80;38.40;;;;;;5038983;28;20438;-78
2022/07/05 10:20:37;;;;;;;2.60;1.57;;;35.10;39.60;;;;;;5039048;28;20426;-78
2022/07/05 10:23:09;;;;;;;2.40;1.70;;;37.00;38.00;;;;;;5039762;28;20426;-79
2022/07/05 10:25:39;;;;;;;3.57;1.80;;;38.30;38.00;;;;;;5039381;28;20422;-78
2022/07/05 10:28:06;;;;;;;3.43;2.10;;;37.50;36.40;;;;;;5039295;28;20819;-78
2022/07/05 10:30:33;;;;;;;3.30;2.10;;;35.70;37.20;;;;;;5038443;28;20452;-78
2022/07/05 10:33:01;;;;;;;3.57;2.00;;;35.10;38.10;;;;;;5039375;28;20437;-78
2022/07/05 10:35:27;;;;;;;7.77;2.53;;;33.90;38.90;;;;;;5038762;28;20461;-78
2022/07/05 10:37:54;;;;;;;3.60;2.03;;;33.30;39.90;;;;;;5038112;28;20426;-78
2022/07/05 10:40:20;;;;;;;5.13;2.47;;;32.40;41.30;;;;;;5038127;28;20429;-78
2022/07/05 10:42:54;;;;;;;4.63;2.10;;;32.40;41.60;;;;;;5038588;28;20430;-78
2022/07/05 10:45:30;;;;;;;2.83;1.70;;;32.50;41.20;;;;;;5039390;28;20433;-78
2022/07/05 10:48:16;;;;;;;5.10;2.70;;;32.70;41.60;;;;;;5038692;28;20452;-78
2022/07/05 10:50:48;;;;;;;3.27;1.90;;;32.80;39.70;;;;;;5038166;28;20504;-78
2022/07/05 10:53:15;;;;;;;3.80;2.30;;;32.90;39.70;;;;;;5038152;28;20471;-78
2022/07/05 10:55:47;;;;;;;3.50;2.10;;;32.10;40.90;;;;;;5038527;28;20619;-78
2022/07/05 10:58:16;;;;;;;3.87;3.23;;;31.40;42.00;;;;;;5038976;28;20442;-78
2022/07/05 11:00:43;;;;;;;3.33;2.00;;;30.60;43.40;;;;;;5039304;28;20479;-79
2022/07/05 11:03:37;;;;;;;2.83;1.97;;;29.70;44.30;;;;;;5041170;28;20810;-78
2022/07/05 11:06:07;;;;;;;3.17;2.43;;;29.00;45.50;;;;;;5040664;28;20457;-78
2022/07/05 11:08:55;;;;;;;4.00;1.80;;;28.90;46.00;;;;;;5040517;28;20422;-78
2022/07/05 11:11:26;;;;;;;3.60;2.00;;;29.70;47.30;;;;;;5040481;28;20921;-78
2022/07/05 11:13:54;;;;;;;3.10;2.10;;;29.90;46.30;;;;;;5040914;28;20464;-78
2022/07/05 11:16:24;;;;;;;3.20;1.80;;;29.80;46.50;;;;;;5039690;28;20577;-78
2022/07/05 11:19:04;;;;;;;2.80;2.10;;;29.60;47.20;;;;;;5040906;28;20433;-78
2022/07/05 11:21:30;;;;;;;4.23;1.97;;;29.20;46.40;;;;;;5040726;28;20418;-78
2022/07/05 11:24:23;;;;;;;2.97;1.77;;;28.40;46.40;;;;;;5040354;28;20475;-78
2022/07/05 11:26:52;;;;;;;3.30;1.90;;;28.30;47.90;;;;;;5039526;28;20179;-79
2022/07/05 11:29:44;;;;;;;3.37;1.60;;;27.70;46.20;;;;;;5040280;28;20444;-78
2022/07/05 11:32:15;;;;;;;5.20;1.70;;;27.50;47.50;;;;;;5040346;28;20509;-78
2022/07/05 11:34:43;;;;;;;5.73;1.60;;;27.60;48.10;;;;;;5040516;28;20501;-78
2022/07/05 11:37:23;;;;;;;5.97;2.30;;;27.70;48.00;;;;;;5039523;28;20501;-78
2022/07/05 11:40:09;;;;;;;4.77;2.93;;;27.60;48.40;;;;;;5039960;28;20456;-78
2022/07/05 11:42:48;;;;;;;4.37;1.60;;;27.50;47.70;;;;;;5022473;28;21020;-78
2022/07/05 11:45:14;;;;;;;2.83;1.50;;;27.20;47.00;;;;;;5039100;28;20971;-78
2022/07/05 11:47:41;;;;;;;3.40;1.70;;;27.30;48.80;;;;;;5038850;28;20965;-78
2022/07/05 11:50:08;;;;;;;4.73;1.83;;;27.40;48.90;;;;;;5039590;28;20414;-78
2022/07/05 11:52:38;;;;;;;3.50;1.90;;;27.30;47.80;;;;;;5039023;28;20472;-78
2022/07/05 11:55:09;;;;;;;3.10;1.77;;;26.90;46.30;;;;;;5038638;28;20475;-78
2022/07/05 11:57:35;;;;;;;4.70;1.63;;;26.80;48.20;;;;;;5038488;28;20450;-78
2022/07/05 12:00:05;;;;;;;5.63;1.87;;;26.80;47.30;;;;;;5038972;28;20422;-78
2022/07/05 12:02:31;;;;;;;3.37;1.30;;;27.10;46.20;;;;;;5039179;28;20862;-78
2022/07/05 12:04:57;;;;;;;2.50;1.47;;;27.20;47.10;;;;;;5038787;28;20459;-78
2022/07/05 12:07:31;;;;;;;3.80;1.50;;;27.20;46.00;;;;;;5038814;28;20202;-78
2022/07/05 12:12:43;;;;;;;4.73;2.03;;;26.80;46.20;;;;;;5056388;28;20453;-78
2022/07/05 12:15:12;;;;;;;3.23;2.33;;;26.70;47.00;;;;;;5038330;28;20422;-78
2022/07/05 12:17:39;;;;;;;3.47;1.80;;;26.70;46.10;;;;;;5038329;28;21040;-78
2022/07/05 12:20:06;;;;;;;2.90;1.40;;;26.70;47.70;;;;;;5038322;28;20422;-78
2022/07/05 12:22:37;;;;;;;2.70;1.50;;;26.90;49.90;;;;;;5038578;28;20960;-78
2022/07/05 12:25:06;;;;;;;3.53;1.77;;;27.10;48.10;;;;;;5038361;28;20421;-78
2022/07/05 12:27:33;;;;;;;4.07;1.83;;;27.20;48.00;;;;;;5037975;28;20449;-77
2022/07/05 12:30:02;;;;;;;2.90;1.80;;;27.30;49.60;;;;;;5038752;28;20418;-78
2022/07/05 12:32:29;;;;;;;7.13;2.03;;;27.00;48.40;;;;;;5038567;28;20444;-78
2022/07/05 12:34:56;;;;;;;3.07;1.70;;;27.10;49.60;;;;;;5038584;28;20414;-78
2022/07/05 12:37:23;;;;;;;3.00;2.10;;;27.00;49.40;;;;;;5038265;28;20470;-78
2022/07/05 12:39:50;;;;;;;3.33;1.97;;;27.00;50.40;;;;;;5038770;28;20453;-78
2022/07/05 12:42:33;;;;;;;2.80;1.90;;;27.10;50.60;;;;;;5038141;28;20434;-78
2022/07/05 12:45:15;;;;;;;4.40;1.97;;;27.30;50.40;;;;;;5038769;28;20488;-78
2022/07/05 12:48:11;;;;;;;2.87;1.87;;;27.60;49.40;;;;;;5038317;28;20442;-78
2022/07/05 12:50:52;;;;;;;3.30;1.93;;;27.80;49.00;;;;;;5022473;28;20425;-78
2022/07/05 12:58:54;;;;;;;4.00;2.07;;;28.00;47.80;;;;;;5057299;28;20563;-78
2022/07/05 13:01:27;;;;;;;3.27;1.97;;;27.90;47.80;;;;;;5039106;28;20811;-78
2022/07/05 13:04:09;;;;;;;3.20;1.87;;;27.60;49.30;;;;;;5038972;28;20480;-78
2022/07/05 13:06:50;;;;;;;4.70;2.07;;;27.30;49.10;;;;;;5038464;28;20493;-78